Time;durP1;ratioP1;P1;durP2;ratioP2;P2;SDS_P1;SDS_P2;PMS_P1;PMS_P2;Temp;Humidity;BMP_temperature;BMP_pressure;BME280_temperature;BME280_humidity;BME280_pressure;Samples;Min_cycle;Max_cycle;Signal;HPM_P1;HPM_P2
2022/07/31 00:01:53;;;;;;;3.70;3.50;;;16.60;99.90;;;;;;6125737;23;20157;-73
2022/07/31 00:04:20;;;;;;;3.53;3.33;;;16.40;99.90;;;;;;6124964;23;20186;-73
2022/07/31 00:06:45;;;;;;;4.40;4.05;;;16.40;99.90;;;;;;6125576;23;20603;-73
2022/07/31 00:09:11;;;;;;;4.18;3.88;;;16.50;99.90;;;;;;6125214;23;20157;-73
2022/07/31 00:11:37;;;;;;;3.65;3.45;;;16.40;99.90;;;;;;6125307;23;20205;-74
2022/07/31 00:14:02;;;;;;;4.30;4.00;;;16.30;99.90;;;;;;6124880;23;20256;-74
2022/07/31 00:16:28;;;;;;;3.90;3.70;;;16.20;99.90;;;;;;6125255;23;20154;-73
2022/07/31 00:18:54;;;;;;;4.53;4.13;;;16.20;99.90;;;;;;6125135;23;20157;-73
2022/07/31 00:21:19;;;;;;;3.88;3.67;;;16.10;99.90;;;;;;6125625;23;20631;-73
2022/07/31 00:23:45;;;;;;;4.18;3.88;;;16.00;99.90;;;;;;6125029;23;20194;-73
2022/07/31 00:26:11;;;;;;;3.97;3.67;;;16.00;99.90;;;;;;6099305;23;20153;-75
2022/07/31 00:28:36;;;;;;;5.55;3.92;;;15.90;99.90;;;;;;6124674;23;20154;-71
2022/07/31 00:31:02;;;;;;;4.70;3.63;;;15.90;99.90;;;;;;6125202;23;20221;-71
2022/07/31 00:33:28;;;;;;;4.45;4.15;;;15.90;99.90;;;;;;6125166;23;20154;-72
2022/07/31 00:35:54;;;;;;;3.92;3.63;;;15.90;99.90;;;;;;6125522;23;20161;-72
2022/07/31 00:38:20;;;;;;;4.03;3.83;;;16.00;99.90;;;;;;6124597;23;20156;-71
2022/07/31 00:40:47;;;;;;;4.20;3.90;;;16.10;99.90;;;;;;6125007;23;20173;-73
2022/07/31 00:43:14;;;;;;;4.82;4.50;;;16.20;99.90;;;;;;6125185;23;20561;-73
2022/07/31 00:45:39;;;;;;;4.35;4.05;;;16.30;99.90;;;;;;6125318;23;20623;-73
2022/07/31 00:48:05;;;;;;;4.38;4.07;;;16.30;99.90;;;;;;6124838;23;20156;-74
2022/07/31 00:50:31;;;;;;;5.20;4.03;;;16.30;99.90;;;;;;6124911;23;20614;-73
2022/07/31 00:52:56;;;;;;;4.72;4.03;;;16.40;99.90;;;;;;6125367;23;20150;-73
2022/07/31 00:55:22;;;;;;;4.40;4.10;;;16.40;99.90;;;;;;6124781;23;20248;-74
2022/07/31 00:57:48;;;;;;;4.43;4.13;;;16.40;99.90;;;;;;6125101;23;20162;-74
2022/07/31 01:00:14;;;;;;;4.55;4.18;;;16.50;99.90;;;;;;6124699;23;20154;-74
2022/07/31 01:02:40;;;;;;;4.38;4.07;;;16.50;99.90;;;;;;6124761;23;20181;-74
2022/07/31 01:05:06;;;;;;;5.18;3.85;;;16.50;99.90;;;;;;6124240;23;20260;-73
2022/07/31 01:07:31;;;;;;;4.35;3.95;;;16.60;99.90;;;;;;6124998;23;20204;-74
2022/07/31 01:09:59;;;;;;;4.00;3.75;;;16.60;99.90;;;;;;6124615;23;20646;-74
2022/07/31 01:12:53;;;;;;;4.40;4.13;;;16.60;99.90;;;;;;6125122;23;20700;-75
2022/07/31 01:15:20;;;;;;;4.20;3.90;;;16.60;99.90;;;;;;6097326;23;20217;-75
2022/07/31 01:17:48;;;;;;;3.80;3.60;;;16.60;99.90;;;;;;6126269;23;20147;-75
2022/07/31 01:20:14;;;;;;;4.82;4.32;;;16.50;99.90;;;;;;6099681;23;20158;-74
2022/07/31 01:23:17;;;;;;;4.45;4.15;;;16.50;99.90;;;;;;6124437;23;20181;-74
2022/07/31 01:26:03;;;;;;;4.40;4.10;;;16.40;99.90;;;;;;6124864;23;20169;-74
2022/07/31 01:28:47;;;;;;;5.63;4.30;;;16.30;99.90;;;;;;6098637;23;20146;-74
2022/07/31 01:31:22;;;;;;;3.83;3.53;;;16.20;99.90;;;;;;6125271;23;20505;-73
2022/07/31 01:34:07;;;;;;;4.30;4.00;;;16.10;99.90;;;;;;6125847;23;20642;-75
2022/07/31 01:36:35;;;;;;;4.38;4.07;;;15.90;99.90;;;;;;6125852;23;20138;-74
2022/07/31 01:39:01;;;;;;;4.20;4.00;;;15.70;99.90;;;;;;6124318;23;20181;-74
2022/07/31 01:41:31;;;;;;;4.68;4.35;;;15.60;99.90;;;;;;6125681;23;20153;-75
2022/07/31 01:43:58;;;;;;;6.20;4.57;;;15.70;99.90;;;;;;6125905;23;20670;-75
2022/07/31 01:46:26;;;;;;;4.53;4.05;;;15.60;99.90;;;;;;6099373;23;20561;-73
2022/07/31 01:48:54;;;;;;;5.45;4.97;;;15.70;99.90;;;;;;6124327;23;20154;-73
2022/07/31 01:51:22;;;;;;;5.20;4.57;;;15.60;99.90;;;;;;6127370;23;20154;-73
2022/07/31 01:53:49;;;;;;;4.68;4.38;;;15.60;99.90;;;;;;6126810;23;20739;-73
2022/07/31 01:56:19;;;;;;;5.10;4.65;;;15.70;99.90;;;;;;6126641;23;20165;-74
2022/07/31 01:58:47;;;;;;;4.78;4.30;;;15.70;99.90;;;;;;6126849;23;20502;-73
2022/07/31 02:01:13;;;;;;;4.63;4.32;;;15.70;99.90;;;;;;6126852;23;20177;-73
2022/07/31 02:03:40;;;;;;;5.10;4.70;;;15.70;99.90;;;;;;6127798;23;20249;-74
2022/07/31 02:06:07;;;;;;;5.40;4.90;;;15.60;99.90;;;;;;6127818;23;20242;-75
2022/07/31 02:08:34;;;;;;;5.28;4.88;;;15.60;99.90;;;;;;6128008;23;20256;-74
2022/07/31 02:11:00;;;;;;;5.35;4.95;;;15.60;99.90;;;;;;6128087;23;20178;-75
2022/07/31 02:13:27;;;;;;;5.38;4.97;;;15.60;99.90;;;;;;6102198;23;20166;-74
2022/07/31 02:15:55;;;;;;;5.20;4.80;;;15.50;99.90;;;;;;6127716;23;20150;-71
2022/07/31 02:18:22;;;;;;;5.05;4.60;;;15.50;99.90;;;;;;6126596;23;20177;-72
2022/07/31 02:20:54;;;;;;;4.60;4.30;;;15.50;99.90;;;;;;6126509;23;20154;-72
2022/07/31 02:23:19;;;;;;;5.22;4.72;;;15.50;99.90;;;;;;6126344;23;20166;-71
2022/07/31 02:25:46;;;;;;;5.10;4.60;;;15.40;99.90;;;;;;6126428;23;20201;-71
2022/07/31 02:28:19;;;;;;;5.30;4.90;;;15.30;99.90;;;;;;6100784;23;20523;-72
2022/07/31 02:30:48;;;;;;;7.45;4.72;;;15.20;99.90;;;;;;6126253;23;20158;-71
2022/07/31 02:33:19;;;;;;;5.03;4.70;;;15.20;99.90;;;;;;6126890;23;20177;-72
2022/07/31 02:35:48;;;;;;;4.35;3.95;;;15.00;99.90;;;;;;6126790;23;20145;-71
2022/07/31 02:38:16;;;;;;;5.25;4.85;;;14.90;99.90;;;;;;6127725;23;20161;-75
2022/07/31 02:40:42;;;;;;;4.63;4.32;;;14.80;99.90;;;;;;6127449;23;20150;-75
2022/07/31 02:43:10;;;;;;;4.70;4.32;;;14.80;99.90;;;;;;6128286;23;20249;-75
2022/07/31 02:45:37;;;;;;;5.03;4.60;;;14.80;99.90;;;;;;6101385;23;20200;-73
2022/07/31 02:48:03;;;;;;;8.27;4.20;;;14.80;99.90;;;;;;6126394;23;20147;-73
2022/07/31 02:50:29;;;;;;;4.75;4.45;;;14.80;99.90;;;;;;6126131;23;20154;-73
2022/07/31 02:52:55;;;;;;;5.35;4.85;;;14.90;99.90;;;;;;6100862;23;20161;-73
2022/07/31 02:55:21;;;;;;;5.15;4.78;;;14.80;99.90;;;;;;6126652;23;20177;-73
2022/07/31 02:57:47;;;;;;;5.25;4.85;;;14.70;99.90;;;;;;6126393;23;20666;-73
2022/07/31 03:00:25;;;;;;;5.35;4.93;;;14.60;99.90;;;;;;6126272;23;20154;-73
2022/07/31 03:02:52;;;;;;;7.18;4.97;;;14.50;99.90;;;;;;6100619;23;20181;-73
2022/07/31 03:05:19;;;;;;;5.15;4.68;;;14.50;99.90;;;;;;6125053;23;20186;-73
2022/07/31 03:07:45;;;;;;;4.55;4.25;;;14.60;99.90;;;;;;6126909;23;20153;-73
2022/07/31 03:10:11;;;;;;;5.50;5.03;;;14.60;99.90;;;;;;6126758;23;20146;-73
2022/07/31 03:12:40;;;;;;;5.20;4.60;;;14.60;99.90;;;;;;6126122;23;20157;-73
2022/07/31 03:15:17;;;;;;;5.18;4.78;;;14.60;99.90;;;;;;6126569;23;20173;-73
2022/07/31 03:17:44;;;;;;;5.15;4.75;;;14.50;99.90;;;;;;6126449;23;20161;-73
2022/07/31 03:20:11;;;;;;;5.18;4.78;;;14.40;99.90;;;;;;6126231;23;20601;-73
2022/07/31 03:22:38;;;;;;;5.22;4.80;;;14.40;99.90;;;;;;6125510;23;20178;-73
2022/07/31 03:25:05;;;;;;;5.68;5.22;;;14.30;99.90;;;;;;6126235;23;20240;-73
2022/07/31 03:27:32;;;;;;;5.32;4.93;;;14.30;99.90;;;;;;6126532;23;20278;-73
2022/07/31 03:29:57;;;;;;;5.30;4.80;;;14.30;99.90;;;;;;6126466;23;20147;-73
2022/07/31 03:32:23;;;;;;;5.47;5.05;;;14.30;99.90;;;;;;6126098;23;20150;-72
2022/07/31 03:34:48;;;;;;;5.35;5.05;;;14.40;99.90;;;;;;6125990;23;20178;-73
2022/07/31 03:37:14;;;;;;;4.63;4.35;;;14.40;99.90;;;;;;6125938;23;20236;-71
2022/07/31 03:39:40;;;;;;;5.57;5.03;;;14.40;99.90;;;;;;6125822;23;20482;-71
2022/07/31 03:42:08;;;;;;;5.22;4.72;;;14.50;99.90;;;;;;6125754;23;20154;-71
2022/07/31 03:44:35;;;;;;;5.93;5.43;;;14.60;99.90;;;;;;6126370;23;20170;-70
2022/07/31 03:47:01;;;;;;;5.10;4.80;;;14.60;99.90;;;;;;6126255;23;20587;-71
2022/07/31 03:49:27;;;;;;;5.18;4.80;;;14.60;99.90;;;;;;6126094;23;20278;-72
2022/07/31 03:51:53;;;;;;;5.30;4.80;;;14.50;99.90;;;;;;6126028;23;20150;-72
2022/07/31 03:54:19;;;;;;;5.13;4.82;;;14.50;99.90;;;;;;6126414;23;20184;-74
2022/07/31 03:56:48;;;;;;;5.38;4.97;;;14.40;99.90;;;;;;6126103;23;20544;-73
2022/07/31 03:59:15;;;;;;;5.40;5.00;;;14.40;99.90;;;;;;6125885;23;20150;-73
2022/07/31 04:01:41;;;;;;;6.07;5.35;;;14.40;99.90;;;;;;6125234;23;20154;-73
2022/07/31 04:04:07;;;;;;;5.32;5.03;;;14.50;99.90;;;;;;6125689;23;20196;-71
2022/07/31 04:06:32;;;;;;;6.07;5.68;;;14.40;99.90;;;;;;6126070;23;20150;-73
2022/07/31 04:09:00;;;;;;;5.18;4.88;;;14.40;99.90;;;;;;6125346;23;20201;-72
2022/07/31 04:11:26;;;;;;;5.25;4.90;;;14.50;99.90;;;;;;6126218;23;20158;-72
2022/07/31 04:13:52;;;;;;;5.50;5.07;;;14.50;99.90;;;;;;6126456;23;20169;-72
2022/07/31 04:16:18;;;;;;;5.20;4.90;;;14.50;99.90;;;;;;6127158;23;20161;-74
2022/07/31 04:18:43;;;;;;;5.13;4.63;;;14.60;99.90;;;;;;6127119;23;20150;-74
2022/07/31 04:21:09;;;;;;;5.50;5.10;;;14.70;99.90;;;;;;6100695;23;20236;-72
2022/07/31 04:23:34;;;;;;;5.63;5.20;;;14.70;99.90;;;;;;6126135;23;20265;-73
2022/07/31 04:26:00;;;;;;;5.90;5.30;;;14.70;99.90;;;;;;6127297;23;20181;-72
2022/07/31 04:28:26;;;;;;;6.07;5.55;;;14.80;99.90;;;;;;6127352;23;20150;-73
2022/07/31 04:30:51;;;;;;;6.00;5.60;;;14.70;99.90;;;;;;6126806;23;20155;-74
2022/07/31 04:33:17;;;;;;;5.20;4.90;;;14.70;99.90;;;;;;6126674;23;20157;-74
2022/07/31 04:35:43;;;;;;;5.97;5.45;;;14.80;99.90;;;;;;6125339;23;20173;-72
2022/07/31 04:38:10;;;;;;;5.03;4.72;;;14.90;99.90;;;;;;6125402;23;20150;-73
2022/07/31 04:40:36;;;;;;;5.40;5.00;;;15.00;99.90;;;;;;6125475;23;20237;-72
2022/07/31 04:43:02;;;;;;;5.30;5.00;;;15.20;99.90;;;;;;6125718;23;20619;-74
2022/07/31 04:45:27;;;;;;;5.10;4.60;;;15.40;99.90;;;;;;6124926;23;20174;-73
2022/07/31 04:47:53;;;;;;;5.03;4.72;;;15.60;99.90;;;;;;6125431;23;20153;-73
2022/07/31 04:50:19;;;;;;;6.50;5.20;;;15.70;99.90;;;;;;6124916;23;20553;-74
2022/07/31 04:52:44;;;;;;;5.70;5.25;;;15.70;99.90;;;;;;6125381;23;20353;-73
2022/07/31 04:55:10;;;;;;;5.30;4.90;;;15.70;99.90;;;;;;6125164;23;20185;-72
2022/07/31 04:57:36;;;;;;;6.13;5.53;;;15.80;99.90;;;;;;6125891;23;20182;-74
2022/07/31 05:00:02;;;;;;;5.70;5.30;;;15.90;99.90;;;;;;6125588;23;20154;-73
2022/07/31 05:02:28;;;;;;;5.20;4.75;;;16.00;99.90;;;;;;6098656;23;20181;-73
2022/07/31 05:04:53;;;;;;;5.05;4.72;;;16.20;99.90;;;;;;6124332;23;20716;-73
2022/07/31 05:07:19;;;;;;;5.53;5.13;;;16.30;99.90;;;;;;6124959;23;20214;-71
2022/07/31 05:09:45;;;;;;;5.28;4.88;;;16.40;99.90;;;;;;6124663;23;20492;-72
2022/07/31 05:12:10;;;;;;;5.75;5.28;;;16.50;99.90;;;;;;6124416;23;20234;-72
2022/07/31 05:14:36;;;;;;;5.72;5.22;;;16.60;99.90;;;;;;6124825;23;20556;-73
2022/07/31 05:17:01;;;;;;;5.60;5.25;;;16.60;99.90;;;;;;6125254;23;20150;-72
2022/07/31 05:19:29;;;;;;;6.00;5.50;;;16.70;99.90;;;;;;6124883;23;20146;-74
2022/07/31 05:21:56;;;;;;;5.75;5.35;;;16.70;99.90;;;;;;6125081;23;20547;-74
2022/07/31 05:24:22;;;;;;;5.53;5.03;;;16.70;99.90;;;;;;6124362;23;20243;-73
2022/07/31 05:26:47;;;;;;;5.20;4.90;;;16.80;99.90;;;;;;6124684;23;20205;-73
2022/07/31 05:29:13;;;;;;;5.88;5.47;;;17.00;99.90;;;;;;6124431;23;20154;-73
2022/07/31 05:31:39;;;;;;;4.95;4.55;;;17.10;99.90;;;;;;6124863;23;20162;-74
2022/07/31 05:34:04;;;;;;;5.25;4.85;;;17.30;99.90;;;;;;6125739;23;20177;-73
2022/07/31 05:36:30;;;;;;;6.47;4.57;;;17.60;99.90;;;;;;6124677;23;20599;-73
2022/07/31 05:38:55;;;;;;;5.30;4.90;;;17.90;99.90;;;;;;6124441;23;20153;-73
2022/07/31 05:41:21;;;;;;;5.30;4.82;;;18.20;99.90;;;;;;6124424;23;20158;-73
2022/07/31 05:43:47;;;;;;;5.10;4.72;;;18.60;99.90;;;;;;6124413;23;20260;-73
2022/07/31 05:46:13;;;;;;;4.35;4.05;;;18.90;99.90;;;;;;6124726;23;20157;-74
2022/07/31 05:48:40;;;;;;;5.32;4.82;;;19.20;99.90;;;;;;6124113;23;20641;-71
2022/07/31 05:51:08;;;;;;;4.72;4.43;;;19.30;99.90;;;;;;6124267;23;20154;-73
2022/07/31 05:53:34;;;;;;;4.90;4.60;;;19.40;99.90;;;;;;6124495;23;20595;-74
2022/07/31 05:55:59;;;;;;;4.60;4.22;;;19.40;99.90;;;;;;6098740;23;20162;-73
2022/07/31 05:58:25;;;;;;;4.50;4.20;;;19.50;99.90;;;;;;6124491;23;20151;-73
2022/07/31 06:00:50;;;;;;;5.00;4.50;;;19.50;99.90;;;;;;6123866;23;20225;-71
2022/07/31 06:03:23;;;;;;;4.78;4.47;;;19.60;99.90;;;;;;6124396;23;20185;-71
2022/07/31 06:05:49;;;;;;;4.50;4.10;;;19.70;99.90;;;;;;6124469;23;20484;-71
2022/07/31 06:08:15;;;;;;;5.18;4.88;;;19.80;99.90;;;;;;6124197;23;20165;-71
2022/07/31 06:10:41;;;;;;;4.85;4.40;;;19.90;99.90;;;;;;6124047;23;20150;-71
2022/07/31 06:13:06;;;;;;;4.47;4.18;;;19.90;99.90;;;;;;6124321;23;20154;-73
2022/07/31 06:15:32;;;;;;;4.97;4.68;;;20.00;99.90;;;;;;6124471;23;20638;-73
2022/07/31 06:17:58;;;;;;;4.80;4.53;;;20.20;99.90;;;;;;6124467;23;20229;-74
2022/07/31 06:20:24;;;;;;;4.25;3.95;;;20.30;99.90;;;;;;6124982;23;20155;-73
2022/07/31 06:22:50;;;;;;;4.50;4.20;;;20.40;99.90;;;;;;6098591;23;20631;-73
2022/07/31 06:25:15;;;;;;;4.32;4.03;;;20.40;99.90;;;;;;6124301;23;20166;-73
2022/07/31 06:27:41;;;;;;;4.47;4.13;;;20.50;99.90;;;;;;6124119;23;20150;-73
2022/07/31 06:30:07;;;;;;;3.95;3.75;;;20.70;99.90;;;;;;6124028;23;20233;-73
2022/07/31 06:32:33;;;;;;;4.95;4.55;;;21.00;99.90;;;;;;6124300;23;20524;-73
2022/07/31 06:34:59;;;;;;;5.78;4.00;;;21.20;99.90;;;;;;6123801;23;20174;-73
2022/07/31 06:37:25;;;;;;;4.47;4.07;;;21.40;99.90;;;;;;6126136;23;20161;-73
2022/07/31 06:39:52;;;;;;;4.15;3.78;;;21.50;99.90;;;;;;6126231;23;20154;-73
2022/07/31 06:42:22;;;;;;;3.90;3.70;;;21.60;99.90;;;;;;6125726;23;20681;-74
2022/07/31 06:44:48;;;;;;;3.78;3.58;;;21.80;99.90;;;;;;6126437;23;20170;-74
2022/07/31 06:47:15;;;;;;;3.70;3.50;;;22.10;99.90;;;;;;6126377;23;20204;-74
2022/07/31 06:49:40;;;;;;;3.97;3.72;;;22.10;99.90;;;;;;6125589;23;20215;-74
2022/07/31 06:52:06;;;;;;;3.63;3.42;;;22.10;99.90;;;;;;6126268;23;20538;-75
2022/07/31 06:54:32;;;;;;;3.80;3.50;;;22.00;99.90;;;;;;6100561;23;20240;-75
2022/07/31 06:56:58;;;;;;;4.10;3.80;;;22.10;99.90;;;;;;6125711;23;20175;-75
2022/07/31 06:59:23;;;;;;;4.10;3.80;;;22.10;99.90;;;;;;6126148;23;20161;-75
2022/07/31 07:01:49;;;;;;;3.90;3.60;;;22.10;99.90;;;;;;6125959;23;20723;-73
2022/07/31 07:04:14;;;;;;;4.50;4.10;;;22.20;99.90;;;;;;6125624;23;20196;-73
2022/07/31 07:06:40;;;;;;;3.95;3.65;;;22.30;99.90;;;;;;6125612;23;20550;-74
2022/07/31 07:09:06;;;;;;;3.97;3.78;;;22.60;99.90;;;;;;6100189;23;20172;-75
2022/07/31 07:11:31;;;;;;;3.83;3.63;;;22.70;99.90;;;;;;6126325;23;20165;-75
2022/07/31 07:13:57;;;;;;;4.20;3.85;;;22.90;99.90;;;;;;6125730;23;20174;-75
2022/07/31 07:16:23;;;;;;;4.13;3.83;;;23.20;99.90;;;;;;6126229;23;20229;-75
2022/07/31 07:18:48;;;;;;;4.28;3.88;;;23.20;99.90;;;;;;6126228;23;20221;-72
2022/07/31 07:21:14;;;;;;;3.80;3.50;;;23.40;99.90;;;;;;6125695;23;20606;-72
2022/07/31 07:23:40;;;;;;;3.38;3.17;;;23.50;99.90;;;;;;6125477;23;20177;-73
2022/07/31 07:26:06;;;;;;;3.83;3.53;;;23.60;99.90;;;;;;6099587;23;20196;-73
2022/07/31 07:28:32;;;;;;;3.83;3.53;;;23.60;99.90;;;;;;6125415;23;20153;-73
2022/07/31 07:30:57;;;;;;;4.20;3.90;;;23.70;99.90;;;;;;6125151;23;20165;-73
2022/07/31 07:33:23;;;;;;;3.88;3.60;;;23.70;99.90;;;;;;6125503;23;20209;-73
2022/07/31 07:35:49;;;;;;;3.70;3.50;;;23.70;99.90;;;;;;6125666;23;20150;-72
2022/07/31 07:38:14;;;;;;;4.43;2.95;;;23.90;99.90;;;;;;6125558;23;20165;-72
2022/07/31 07:40:40;;;;;;;3.63;3.30;;;24.20;99.90;;;;;;6124865;23;20488;-71
2022/07/31 07:43:06;;;;;;;3.40;3.20;;;24.60;99.90;;;;;;6125209;23;20324;-71
2022/07/31 07:45:31;;;;;;;3.63;3.33;;;24.80;99.90;;;;;;6125397;23;20202;-71
2022/07/31 07:47:57;;;;;;;3.38;3.08;;;24.90;99.90;;;;;;6125007;23;20209;-71
2022/07/31 07:50:23;;;;;;;3.13;2.92;;;25.00;99.90;;;;;;6124768;23;20150;-72
2022/07/31 07:52:48;;;;;;;3.30;3.00;;;25.20;99.90;;;;;;6125502;23;20178;-69
2022/07/31 07:55:14;;;;;;;4.53;3.00;;;25.40;99.90;;;;;;6125307;23;20201;-73
2022/07/31 07:57:43;;;;;;;3.17;2.97;;;25.60;99.90;;;;;;6126133;23;20665;-73
2022/07/31 08:00:10;;;;;;;3.05;2.85;;;25.90;99.30;;;;;;6126015;23;20158;-73
2022/07/31 08:02:36;;;;;;;2.58;2.38;;;26.10;98.90;;;;;;6125820;23;20268;-71
2022/07/31 08:05:03;;;;;;;2.88;2.78;;;26.30;98.40;;;;;;6124922;23;20567;-71
2022/07/31 08:07:29;;;;;;;3.30;3.10;;;26.40;96.90;;;;;;6126317;23;20166;-73
2022/07/31 08:09:58;;;;;;;3.20;3.00;;;26.20;96.50;;;;;;6125115;23;20169;-73
2022/07/31 08:12:25;;;;;;;4.05;3.00;;;26.20;96.90;;;;;;6099485;23;20150;-70
2022/07/31 08:14:51;;;;;;;7.45;3.13;;;26.20;96.50;;;;;;6125142;23;20173;-69
2022/07/31 08:17:17;;;;;;;3.15;2.85;;;26.20;96.50;;;;;;6124609;23;20225;-69
2022/07/31 08:19:42;;;;;;;3.20;2.90;;;26.10;94.70;;;;;;6124886;23;20169;-70
2022/07/31 08:22:08;;;;;;;2.97;2.78;;;26.00;93.90;;;;;;6125076;23;20176;-71
2022/07/31 08:24:34;;;;;;;3.40;2.80;;;25.80;94.80;;;;;;6124697;23;20182;-72
2022/07/31 08:29:44;;;;;;;3.08;2.88;;;25.20;97.60;;;;;;6125099;23;20189;-73
2022/07/31 08:32:10;;;;;;;5.22;3.30;;;25.00;97.90;;;;;;6125007;23;20142;-72
2022/07/31 08:34:36;;;;;;;2.92;2.83;;;24.90;98.30;;;;;;6125217;23;20177;-70
2022/07/31 08:37:03;;;;;;;3.78;2.60;;;24.50;98.60;;;;;;6124891;23;20181;-73
2022/07/31 08:39:28;;;;;;;2.70;2.60;;;24.20;99.90;;;;;;6124623;23;20154;-70
2022/07/31 08:41:54;;;;;;;3.00;2.75;;;24.10;99.90;;;;;;6124301;23;20162;-71
2022/07/31 08:44:20;;;;;;;3.60;3.15;;;24.00;99.50;;;;;;6125155;23;20192;-71
2022/07/31 08:46:46;;;;;;;3.10;2.90;;;24.00;99.90;;;;;;6099007;23;20233;-71
2022/07/31 08:49:15;;;;;;;2.90;2.70;;;24.10;99.80;;;;;;6124207;23;20146;-70
2022/07/31 08:51:43;;;;;;;2.95;2.65;;;24.10;98.00;;;;;;6124943;23;20154;-70
2022/07/31 08:54:10;;;;;;;2.75;2.60;;;24.00;98.20;;;;;;6125069;23;20174;-72
2022/07/31 08:56:36;;;;;;;2.88;2.70;;;24.00;98.30;;;;;;6099299;23;20161;-70
2022/07/31 08:59:06;;;;;;;2.85;2.65;;;24.00;99.00;;;;;;6124327;23;20154;-69
2022/07/31 09:01:34;;;;;;;2.70;2.60;;;24.10;97.00;;;;;;6124866;23;20154;-70
2022/07/31 09:04:00;;;;;;;2.60;2.50;;;24.30;96.70;;;;;;6124549;23;20190;-70
2022/07/31 09:06:26;;;;;;;2.83;2.72;;;24.40;96.00;;;;;;6124466;23;20143;-69
2022/07/31 09:08:54;;;;;;;2.78;2.67;;;24.50;95.20;;;;;;6124202;23;20146;-71
2022/07/31 09:11:21;;;;;;;2.70;2.60;;;24.70;95.40;;;;;;6124703;23;20173;-71
2022/07/31 09:13:56;;;;;;;3.30;3.00;;;24.90;96.00;;;;;;6124309;23;20249;-71
2022/07/31 09:16:22;;;;;;;3.05;2.75;;;25.10;94.20;;;;;;6124728;23;20622;-69
2022/07/31 09:19:17;;;;;;;2.70;2.55;;;25.20;95.00;;;;;;6124263;23;20181;-70
2022/07/31 09:21:44;;;;;;;2.75;2.50;;;25.30;94.20;;;;;;6105453;23;20610;-71
2022/07/31 09:24:12;;;;;;;3.03;2.80;;;25.40;93.60;;;;;;6098432;23;20233;-71
2022/07/31 09:26:41;;;;;;;5.13;3.42;;;25.70;93.00;;;;;;6124652;23;20146;-71
2022/07/31 09:29:10;;;;;;;2.60;2.40;;;25.80;92.40;;;;;;6124307;23;20146;-71
2022/07/31 09:31:37;;;;;;;2.67;2.58;;;25.90;91.50;;;;;;6124182;23;20201;-73
2022/07/31 09:34:03;;;;;;;3.13;2.70;;;26.50;91.40;;;;;;6126077;23;20201;-73
2022/07/31 09:36:29;;;;;;;3.60;2.95;;;27.30;88.20;;;;;;6124646;23;20149;-69
2022/07/31 09:38:55;;;;;;;2.40;2.30;;;29.30;80.70;;;;;;6124164;23;20487;-71
2022/07/31 09:41:22;;;;;;;2.30;2.20;;;31.00;74.50;;;;;;6124121;23;20502;-72
2022/07/31 09:43:59;;;;;;;3.17;2.53;;;33.00;68.20;;;;;;6125823;23;20716;-71
2022/07/31 09:46:26;;;;;;;2.67;2.30;;;34.50;59.50;;;;;;6100075;23;20160;-72
2022/07/31 09:48:57;;;;;;;2.83;2.15;;;35.90;57.20;;;;;;6124422;23;20216;-69
2022/07/31 09:51:23;;;;;;;2.30;2.10;;;37.10;54.60;;;;;;6124532;23;20134;-68
2022/07/31 09:53:55;;;;;;;2.15;2.05;;;38.00;50.50;;;;;;6124330;23;20180;-68
2022/07/31 09:56:33;;;;;;;2.13;1.92;;;39.10;48.70;;;;;;6124506;23;20140;-68
2022/07/31 09:58:59;;;;;;;2.47;2.28;;;40.30;46.10;;;;;;6123475;23;20209;-68
2022/07/31 10:01:25;;;;;;;1.95;1.85;;;40.90;44.40;;;;;;6124364;23;20526;-67
2022/07/31 10:03:52;;;;;;;2.95;2.28;;;42.10;42.30;;;;;;6124159;23;20189;-68
2022/07/31 10:06:19;;;;;;;2.17;2.00;;;42.50;41.10;;;;;;6124271;23;20611;-69
2022/07/31 10:08:46;;;;;;;2.00;1.90;;;42.70;40.70;;;;;;6123698;23;20157;-69
2022/07/31 10:11:13;;;;;;;2.22;2.08;;;43.30;40.20;;;;;;6125460;23;20153;-69
2022/07/31 10:13:44;;;;;;;1.67;1.60;;;44.00;39.20;;;;;;6126178;23;20225;-69
2022/07/31 10:16:11;;;;;;;2.20;2.03;;;43.20;39.10;;;;;;6125879;23;20197;-70
2022/07/31 10:18:40;;;;;;;1.67;1.67;;;41.50;39.60;;;;;;6126063;23;20168;-70
2022/07/31 10:21:10;;;;;;;2.30;1.88;;;38.90;42.20;;;;;;6126274;23;20598;-69
2022/07/31 10:23:40;;;;;;;1.60;1.60;;;38.90;42.00;;;;;;6125692;23;20208;-69
2022/07/31 10:26:06;;;;;;;1.50;1.50;;;40.20;39.50;;;;;;6126593;23;20137;-67
2022/07/31 10:28:35;;;;;;;1.60;1.55;;;40.90;38.10;;;;;;6125799;23;20149;-67
2022/07/31 10:31:01;;;;;;;1.60;1.55;;;41.60;37.80;;;;;;6125779;23;20149;-68
2022/07/31 10:33:27;;;;;;;2.38;1.70;;;42.40;36.70;;;;;;6126112;23;20256;-70
2022/07/31 10:36:07;;;;;;;1.73;1.60;;;42.30;36.40;;;;;;6126175;23;20158;-69
2022/07/31 10:38:52;;;;;;;2.00;1.42;;;41.40;37.10;;;;;;6125607;23;20142;-69
2022/07/31 10:41:53;;;;;;;1.45;1.40;;;40.30;37.00;;;;;;6080952;23;20164;-68
2022/07/31 10:44:49;;;;;;;1.17;1.02;;;40.60;36.50;;;;;;6077015;23;20189;-71
2022/07/31 10:47:16;;;;;;;1.30;1.20;;;40.90;36.60;;;;;;6126128;23;20622;-68
2022/07/31 10:49:44;;;;;;;3.58;1.40;;;41.40;35.70;;;;;;6125544;23;20420;-71
2022/07/31 10:52:10;;;;;;;2.58;1.58;;;42.30;35.50;;;;;;6101066;23;20629;-70
2022/07/31 10:54:43;;;;;;;1.67;1.58;;;42.80;35.00;;;;;;6126147;23;20169;-70
2022/07/31 10:57:23;;;;;;;1.67;1.30;;;41.90;35.20;;;;;;6126284;23;20599;-68
2022/07/31 10:59:49;;;;;;;1.27;1.17;;;40.30;36.50;;;;;;6099396;23;20200;-68
2022/07/31 11:02:30;;;;;;;1.40;1.40;;;41.00;36.30;;;;;;6125724;23;20185;-68
2022/07/31 11:05:14;;;;;;;1.27;1.13;;;41.00;35.50;;;;;;6099858;23;20193;-68
2022/07/31 11:07:44;;;;;;;1.05;1.05;;;41.90;35.40;;;;;;6125735;23;20282;-68
2022/07/31 11:10:12;;;;;;;1.50;1.40;;;42.70;34.20;;;;;;6125570;23;20149;-68
2022/07/31 11:12:38;;;;;;;2.22;1.25;;;42.70;35.00;;;;;;6125852;23;20196;-67
2022/07/31 11:15:15;;;;;;;1.80;1.42;;;42.90;35.40;;;;;;6125210;23;20173;-68
2022/07/31 11:17:41;;;;;;;1.70;1.10;;;43.00;34.70;;;;;;6125727;23;20563;-68
2022/07/31 11:20:21;;;;;;;1.65;1.60;;;42.20;34.50;;;;;;6125202;23;20154;-70
2022/07/31 11:22:56;;;;;;;1.13;1.13;;;41.60;36.30;;;;;;6125354;23;20169;-69
2022/07/31 11:25:22;;;;;;;1.10;1.10;;;41.70;35.00;;;;;;6125672;23;20192;-69
2022/07/31 11:27:49;;;;;;;1.30;1.30;;;42.00;35.50;;;;;;6125525;23;20159;-69
2022/07/31 11:30:15;;;;;;;0.93;0.93;;;41.90;35.50;;;;;;6124843;23;20153;-70
2022/07/31 11:32:51;;;;;;;1.90;1.00;;;42.00;34.90;;;;;;6125584;23;20540;-69
2022/07/31 11:35:28;;;;;;;0.93;0.70;;;42.40;34.70;;;;;;6099519;23;20506;-69
2022/07/31 11:37:55;;;;;;;1.20;1.10;;;43.40;33.00;;;;;;6125574;23;20148;-69
2022/07/31 11:40:20;;;;;;;0.82;0.82;;;43.40;33.40;;;;;;6099248;23;20224;-71
2022/07/31 11:42:46;;;;;;;2.85;0.90;;;43.80;32.90;;;;;;6125948;23;20212;-71
2022/07/31 11:45:14;;;;;;;0.90;0.90;;;44.60;31.90;;;;;;6125987;23;20176;-70
2022/07/31 11:47:45;;;;;;;0.90;0.88;;;44.80;31.30;;;;;;6099636;23;20497;-68
2022/07/31 11:50:11;;;;;;;1.45;0.80;;;43.90;31.50;;;;;;6124895;23;20145;-68
2022/07/31 11:52:42;;;;;;;1.42;1.02;;;43.40;32.20;;;;;;6125394;23;20158;-67
2022/07/31 11:55:10;;;;;;;1.17;1.17;;;43.30;32.40;;;;;;6125109;23;20210;-68
2022/07/31 11:57:36;;;;;;;0.65;0.65;;;43.40;31.80;;;;;;6125280;23;20149;-68
2022/07/31 12:00:13;;;;;;;0.80;0.80;;;43.00;31.00;;;;;;6125090;23;20196;-68
2022/07/31 12:02:44;;;;;;;1.05;1.05;;;41.80;31.90;;;;;;6125492;23;20134;-67
2022/07/31 12:05:13;;;;;;;1.20;1.10;;;41.40;33.20;;;;;;6124847;23;20260;-68
2022/07/31 12:07:43;;;;;;;1.00;1.00;;;41.60;32.90;;;;;;6125604;23;20150;-68
2022/07/31 12:10:11;;;;;;;1.27;1.05;;;41.70;32.90;;;;;;6124846;23;20153;-70
2022/07/31 12:12:37;;;;;;;0.90;0.90;;;42.60;31.60;;;;;;6125118;23;20177;-69
2022/07/31 12:15:19;;;;;;;0.65;0.65;;;42.50;31.50;;;;;;6124697;23;20171;-70
2022/07/31 12:17:46;;;;;;;0.82;0.82;;;41.50;31.70;;;;;;6125241;23;20177;-69
2022/07/31 12:20:12;;;;;;;1.20;1.20;;;40.60;32.40;;;;;;6124754;23;20149;-69
2022/07/31 12:22:38;;;;;;;1.27;1.20;;;39.40;34.10;;;;;;6124839;23;20196;-69
2022/07/31 12:25:08;;;;;;;0.93;0.93;;;38.40;35.00;;;;;;6124479;23;20170;-69
2022/07/31 12:27:35;;;;;;;1.38;1.27;;;38.00;35.60;;;;;;6125524;23;20146;-69
2022/07/31 12:30:12;;;;;;;1.23;1.23;;;38.60;35.50;;;;;;6124747;23;20599;-69
2022/07/31 12:32:38;;;;;;;2.28;1.20;;;39.40;35.30;;;;;;6124630;23;20479;-70
2022/07/31 12:35:04;;;;;;;1.45;1.27;;;40.10;34.50;;;;;;6124496;23;20165;-70
2022/07/31 12:37:40;;;;;;;1.40;1.30;;;40.30;35.10;;;;;;6124995;23;20200;-70
2022/07/31 12:40:06;;;;;;;2.13;1.20;;;40.70;34.10;;;;;;6124436;23;20134;-69
2022/07/31 12:42:34;;;;;;;1.20;1.20;;;40.40;34.10;;;;;;6125220;23;20154;-68
2022/07/31 12:45:01;;;;;;;2.88;1.38;;;39.70;34.50;;;;;;6124807;23;20192;-71
2022/07/31 12:47:29;;;;;;;1.30;1.30;;;39.70;35.50;;;;;;6124671;23;20206;-69
2022/07/31 12:49:56;;;;;;;1.10;1.10;;;39.50;34.80;;;;;;6124329;23;20149;-72
2022/07/31 12:52:22;;;;;;;1.10;1.10;;;40.30;34.60;;;;;;6126547;23;20217;-72
2022/07/31 12:54:48;;;;;;;1.13;1.00;;;41.10;33.50;;;;;;6125860;23;20173;-71